Time,TemperatureF,DewpointF,PressureIn,WindDirection,WindDirectionDegrees,WindSpeedMPH,WindSpeedGustMPH,Humidity,HourlyPrecipIn,Conditions,Clouds,dailyrainin,SoftwareType,DateUTC
2013-09-21 00:05:00,55.4,49.0,29.96,ESE,104,0.0,0.0,79,0.00,,,0.00,Wunderground v.1.15,2013-09-21 05:05:00,
2013-09-21 00:10:00,55.1,49.0,29.96,ESE,104,0.0,0.0,80,0.00,,,0.00,Wunderground v.1.15,2013-09-21 05:10:00,
2013-09-21 00:20:00,55.0,48.9,29.96,ESE,104,0.0,0.0,80,0.00,,,0.00,Wunderground v.1.15,2013-09-21 05:20:00,
2013-09-21 00:25:00,54.6,48.9,29.96,ESE,104,0.0,0.0,81,0.00,,,0.00,Wunderground v.1.15,2013-09-21 05:25:00,
2013-09-21 00:35:00,54.1,48.7,29.96,ESE,105,0.0,0.0,82,0.00,,,0.00,Wunderground v.1.15,2013-09-21 05:35:00,
2013-09-21 00:45:00,53.6,48.9,29.96,ESE,105,0.0,0.0,84,0.00,,,0.00,Wunderground v.1.15,2013-09-21 05:45:00,
2013-09-21 00:55:00,52.9,48.5,29.96,ESE,105,0.0,0.0,85,0.00,,,0.00,Wunderground v.1.15,2013-09-21 05:55:00,
2013-09-21 01:05:00,52.0,47.9,29.96,SW,235,0.0,0.0,86,0.00,,,0.00,Wunderground v.1.15,2013-09-21 06:05:00,
2013-09-21 01:15:00,51.8,48.1,29.96,SW,236,0.0,0.0,87,0.00,,,0.00,Wunderground v.1.15,2013-09-21 06:15:00,
2013-09-21 01:20:00,51.7,48.0,29.96,SW,236,0.0,0.0,87,0.00,,,0.00,Wunderground v.1.15,2013-09-21 06:20:00,
2013-09-21 01:30:00,51.4,47.7,29.96,SW,236,0.0,0.0,87,0.00,,,0.00,Wunderground v.1.15,2013-09-21 06:30:00,
2013-09-21 01:40:00,51.0,47.6,29.96,SW,236,0.0,0.0,88,0.00,,,0.00,Wunderground v.1.15,2013-09-21 06:40:00,
2013-09-21 01:50:00,50.7,47.6,29.96,SW,236,0.0,0.0,89,0.00,,,0.00,Wunderground v.1.15,2013-09-21 06:50:00,
2013-09-21 02:00:00,50.5,47.4,29.96,SW,236,0.0,0.0,89,0.00,,,0.00,Wunderground v.1.15,2013-09-21 07:00:00,
2013-09-21 02:10:00,50.1,47.0,29.96,SW,236,0.0,0.0,89,0.00,,,0.00,Wunderground v.1.15,2013-09-21 07:10:00,
2013-09-21 02:15:00,50.0,47.5,29.96,SW,236,0.0,0.0,91,0.00,,,0.00,Wunderground v.1.15,2013-09-21 07:15:00,
2013-09-21 02:20:00,50.1,47.6,29.96,SW,236,0.0,0.0,91,0.00,,,0.00,Wunderground v.1.15,2013-09-21 07:20:00,
2013-09-21 02:30:00,49.8,47.3,29.96,SW,236,0.0,0.0,91,0.00,,,0.00,Wunderground v.1.15,2013-09-21 07:30:00,
2013-09-21 02:35:00,49.6,47.1,29.96,SW,236,0.0,0.0,91,0.00,,,0.00,Wunderground v.1.15,2013-09-21 07:35:00,
2013-09-21 02:45:00,49.3,46.5,29.96,SW,236,0.0,0.0,90,0.00,,,0.00,Wunderground v.1.15,2013-09-21 07:45:00,
2013-09-21 02:55:00,49.0,46.5,29.95,SW,236,0.0,0.0,91,0.00,,,0.00,Wunderground v.1.15,2013-09-21 07:55:00,
2013-09-21 03:05:00,49.1,46.9,29.95,WSW,237,0.0,0.0,92,0.00,,,0.00,Wunderground v.1.15,2013-09-21 08:05:00,
2013-09-21 03:15:00,48.7,46.2,29.95,SW,236,0.0,0.0,91,0.00,,,0.00,Wunderground v.1.15,2013-09-21 08:15:00,
2013-09-21 03:25:00,48.2,45.7,29.96,SW,236,0.0,0.0,91,0.00,,,0.00,Wunderground v.1.15,2013-09-21 08:25:00,
2013-09-21 03:35:00,47.9,45.7,29.95,SW,236,0.0,0.0,92,0.00,,,0.00,Wunderground v.1.15,2013-09-21 08:35:00,
2013-09-21 03:45:00,47.7,45.5,29.96,SW,236,0.0,0.0,92,0.00,,,0.00,Wunderground v.1.15,2013-09-21 08:45:00,
2013-09-21 03:55:00,47.3,45.4,29.96,SW,236,0.0,0.0,93,0.00,,,0.00,Wunderground v.1.15,2013-09-21 08:55:00,
2013-09-21 04:05:00,47.4,45.5,29.96,WSW,237,0.0,0.0,93,0.00,,,0.00,Wunderground v.1.15,2013-09-21 09:05:00,
2013-09-21 04:15:00,47.0,45.1,29.96,SW,236,0.0,0.0,93,0.00,,,0.00,Wunderground v.1.15,2013-09-21 09:15:00,
2013-09-21 04:25:00,47.1,45.5,29.96,SW,236,0.0,0.0,94,0.00,,,0.00,Wunderground v.1.15,2013-09-21 09:25:00,
2013-09-21 04:35:00,47.0,45.4,29.96,WSW,237,0.0,0.0,94,0.00,,,0.00,Wunderground v.1.15,2013-09-21 09:35:00,
2013-09-21 04:45:00,46.5,44.6,29.95,SW,236,0.0,0.0,93,0.00,,,0.00,Wunderground v.1.15,2013-09-21 09:45:00,
2013-09-21 04:55:00,46.3,44.4,29.95,SW,236,0.0,0.0,93,0.00,,,0.00,Wunderground v.1.15,2013-09-21 09:55:00,
2013-09-21 05:05:00,45.7,43.8,29.95,SW,236,0.0,0.0,93,0.00,,,0.00,Wunderground v.1.15,2013-09-21 10:05:00,
2013-09-21 05:15:00,45.7,44.1,29.95,SW,236,0.0,0.0,94,0.00,,,0.00,Wunderground v.1.15,2013-09-21 10:15:00,
2013-09-21 05:25:00,45.5,43.9,29.95,SW,236,0.0,0.0,94,0.00,,,0.00,Wunderground v.1.15,2013-09-21 10:25:00,
2013-09-21 05:30:00,45.5,44.2,29.95,SW,236,0.0,0.0,95,0.00,,,0.00,Wunderground v.1.15,2013-09-21 10:30:00,
2013-09-21 05:40:00,45.6,44.3,29.95,SW,236,0.0,0.0,95,0.00,,,0.00,Wunderground v.1.15,2013-09-21 10:40:00,
2013-09-21 05:50:00,45.3,44.0,29.95,SW,236,0.0,0.0,95,0.00,,,0.00,Wunderground v.1.15,2013-09-21 10:50:00,
2013-09-21 06:00:00,45.3,44.0,29.95,SW,236,0.0,0.0,95,0.00,,,0.00,Wunderground v.1.15,2013-09-21 11:00:00,
2013-09-21 06:10:00,45.1,43.8,29.96,SW,236,0.0,0.0,95,0.00,,,0.00,Wunderground v.1.15,2013-09-21 11:10:00,
2013-09-21 06:15:00,45.1,43.8,29.95,SW,236,0.0,0.0,95,0.00,,,0.00,Wunderground v.1.15,2013-09-21 11:15:00,
2013-09-21 06:25:00,44.9,43.6,29.95,SW,236,0.0,0.0,95,0.00,,,0.00,Wunderground v.1.15,2013-09-21 11:25:00,
2013-09-21 06:35:00,44.7,43.4,29.96,SW,236,0.0,0.0,95,0.00,,,0.00,Wunderground v.1.15,2013-09-21 11:35:00,
2013-09-21 06:45:00,44.3,43.0,29.95,SW,236,0.0,0.0,95,0.00,,,0.00,Wunderground v.1.15,2013-09-21 11:45:00,
2013-09-21 06:55:00,44.4,43.1,29.95,SW,236,0.0,0.0,95,0.00,,,0.00,Wunderground v.1.15,2013-09-21 11:55:00,
2013-09-21 07:05:00,44.3,43.0,29.95,SW,236,0.0,0.0,95,0.00,,,0.00,Wunderground v.1.15,2013-09-21 12:05:00,
2013-09-21 07:10:00,44.3,43.0,29.96,SW,236,0.0,0.0,95,0.00,,,0.00,Wunderground v.1.15,2013-09-21 12:10:00,
2013-09-21 07:20:00,44.2,42.9,29.96,SW,236,0.0,0.0,95,0.00,,,0.00,Wunderground v.1.15,2013-09-21 12:20:00,
2013-09-21 07:30:00,43.8,42.5,29.96,SW,236,0.0,0.0,95,0.00,,,0.00,Wunderground v.1.15,2013-09-21 12:30:00,
2013-09-21 07:40:00,43.7,42.4,29.96,SW,236,0.0,0.0,95,0.00,,,0.00,Wunderground v.1.15,2013-09-21 12:40:00,
2013-09-21 07:50:00,43.9,42.8,29.96,SW,236,0.0,0.0,96,0.00,,,0.00,Wunderground v.1.15,2013-09-21 12:50:00,
2013-09-21 08:00:00,44.6,43.5,29.96,SW,236,0.0,0.0,96,0.00,,,0.00,Wunderground v.1.15,2013-09-21 13:00:00,
2013-09-21 08:05:00,44.9,43.8,29.96,SW,236,0.0,0.0,96,0.00,,,0.00,Wunderground v.1.15,2013-09-21 13:05:00,
2013-09-21 08:10:00,45.2,44.1,29.96,SW,236,0.0,0.0,96,0.00,,,0.00,Wunderground v.1.15,2013-09-21 13:10:00,
2013-09-21 08:20:00,46.5,45.4,29.96,SW,236,0.0,0.0,96,0.00,,,0.00,Wunderground v.1.15,2013-09-21 13:20:00,
2013-09-21 08:25:00,47.5,46.4,29.96,SW,236,0.0,0.0,96,0.00,,,0.00,Wunderground v.1.15,2013-09-21 13:25:00,
2013-09-21 08:35:00,49.8,48.4,29.96,SW,236,0.0,0.0,95,0.00,,,0.00,Wunderground v.1.15,2013-09-21 13:35:00,
2013-09-21 08:45:00,52.8,50.8,29.96,SSW,210,0.0,0.0,93,0.00,,,0.00,Wunderground v.1.15,2013-09-21 13:45:00,
2013-09-21 08:55:00,54.6,51.4,29.96,SSW,208,0.0,0.0,89,0.00,,,0.00,Wunderground v.1.15,2013-09-21 13:55:00,
2013-09-21 09:05:00,56.8,53.0,29.95,SE,139,0.0,2.0,87,0.00,,,0.00,Wunderground v.1.15,2013-09-21 14:05:00,
2013-09-21 09:15:00,59.2,52.3,29.95,SSE,148,3.0,4.0,78,0.00,,,0.00,Wunderground v.1.15,2013-09-21 14:15:00,
2013-09-21 09:25:00,61.3,52.9,29.95,SSW,212,3.0,5.0,74,0.00,,,0.00,Wunderground v.1.15,2013-09-21 14:25:00,
2013-09-21 09:30:00,62.3,52.8,29.95,SSW,194,3.0,4.0,71,0.00,,,0.00,Wunderground v.1.15,2013-09-21 14:30:00,
2013-09-21 09:40:00,63.7,52.5,29.95,South,186,4.0,4.0,67,0.00,,,0.00,Wunderground v.1.15,2013-09-21 14:40:00,
2013-09-21 09:45:00,64.5,52.9,29.95,SSW,212,3.0,5.0,66,0.00,,,0.00,Wunderground v.1.15,2013-09-21 14:45:00,
2013-09-21 09:55:00,65.5,52.1,29.95,South,191,4.0,4.0,62,0.00,,,0.00,Wunderground v.1.15,2013-09-21 14:55:00,
2013-09-21 10:00:00,66.0,52.6,29.95,SW,214,3.0,3.0,62,0.00,,,0.00,Wunderground v.1.15,2013-09-21 15:00:00,
2013-09-21 10:10:00,67.0,53.1,29.94,SW,215,3.0,3.0,61,0.00,,,0.00,Wunderground v.1.15,2013-09-21 15:10:00,
2013-09-21 10:20:00,68.0,53.1,29.94,SW,221,3.0,3.0,59,0.00,,,0.00,Wunderground v.1.15,2013-09-21 15:20:00,
2013-09-21 10:32:00,69.2,53.3,29.94,SSW,194,3.0,3.0,57,0.00,,,0.00,Wunderground v.1.15,2013-09-21 15:32:00,
2013-09-21 10:40:00,70.3,52.9,29.93,SSW,207,2.0,6.0,54,0.00,,,0.00,Wunderground v.1.15,2013-09-21 15:40:00,
2013-09-21 10:45:00,70.7,53.2,29.93,SW,219,3.0,6.0,54,0.00,,,0.00,Wunderground v.1.15,2013-09-21 15:45:00,
2013-09-21 10:55:00,71.6,53.0,29.93,SSW,205,3.0,4.0,52,0.00,,,0.00,Wunderground v.1.15,2013-09-21 15:55:00,
2013-09-21 11:00:00,72.3,53.2,29.93,SSE,162,3.0,7.0,51,0.00,,,0.00,Wunderground v.1.15,2013-09-21 16:00:00,
2013-09-21 11:10:00,73.9,53.0,29.93,NW,308,3.0,3.0,48,0.00,,,0.00,Wunderground v.1.15,2013-09-21 16:10:00,
2013-09-21 11:20:00,74.9,52.1,29.93,WSW,245,3.0,3.0,45,0.00,,,0.00,Wunderground v.1.15,2013-09-21 16:20:00,
2013-09-21 11:30:00,75.3,53.1,29.92,WSW,255,3.0,3.0,46,0.00,,,0.00,Wunderground v.1.15,2013-09-21 16:30:00,
2013-09-21 11:40:00,76.6,52.4,29.92,ESE,109,3.0,4.0,43,0.00,,,0.00,Wunderground v.1.15,2013-09-21 16:40:00,
2013-09-21 11:50:00,78.1,53.1,29.92,West,275,2.0,3.0,42,0.00,,,0.00,Wunderground v.1.15,2013-09-21 16:50:00,
2013-09-21 12:00:00,79.9,49.0,29.91,WNW,289,4.0,4.0,34,0.00,,,0.00,Wunderground v.1.15,2013-09-21 17:00:00,
2013-09-21 12:05:00,80.3,50.1,29.91,SE,129,4.0,5.0,35,0.00,,,0.00,Wunderground v.1.15,2013-09-21 17:05:00,
2013-09-21 12:15:00,80.9,49.1,29.91,SW,233,6.0,8.0,33,0.00,,,0.00,Wunderground v.1.15,2013-09-21 17:15:00,
2013-09-21 12:25:00,81.2,48.5,29.90,West,260,4.0,6.0,32,0.00,,,0.00,Wunderground v.1.15,2013-09-21 17:25:00,
2013-09-21 12:35:00,82.0,47.5,29.90,SSW,200,5.0,8.0,30,0.00,,,0.00,Wunderground v.1.15,2013-09-21 17:35:00,
2013-09-21 12:45:00,82.1,48.5,29.90,SSW,212,6.0,6.0,31,0.00,,,0.00,Wunderground v.1.15,2013-09-21 17:45:00,
2013-09-21 12:55:00,81.8,47.3,29.90,WNW,296,7.0,10.0,30,0.00,,,0.00,Wunderground v.1.15,2013-09-21 17:55:00,
2013-09-21 13:05:00,82.2,47.7,29.89,South,172,6.0,11.0,30,0.00,,,0.00,Wunderground v.1.15,2013-09-21 18:05:00,
2013-09-21 13:10:00,82.3,46.9,29.89,SW,232,7.0,8.0,29,0.00,,,0.00,Wunderground v.1.15,2013-09-21 18:10:00,
2013-09-21 13:20:00,82.7,47.2,29.89,SSW,194,7.0,7.0,29,0.00,,,0.00,Wunderground v.1.15,2013-09-21 18:20:00,
2013-09-21 13:35:00,83.5,47.0,29.88,SSW,210,6.0,13.0,28,0.00,,,0.00,Wunderground v.1.15,2013-09-21 18:35:00,
2013-09-21 13:45:00,83.0,45.6,29.88,South,174,8.0,12.0,27,0.00,,,0.00,Wunderground v.1.15,2013-09-21 18:45:00,
2013-09-21 13:55:00,83.2,46.7,29.87,SSW,210,7.0,8.0,28,0.00,,,0.00,Wunderground v.1.15,2013-09-21 18:55:00,
2013-09-21 14:05:00,83.6,46.1,29.86,SSW,197,7.0,8.0,27,0.00,,,0.00,Wunderground v.1.15,2013-09-21 19:05:00,
2013-09-21 14:15:00,83.4,47.8,29.86,SSE,163,7.0,8.0,29,0.00,,,0.00,Wunderground v.1.15,2013-09-21 19:15:00,
2013-09-21 14:25:00,83.8,46.2,29.85,SSW,201,8.0,11.0,27,0.00,,,0.00,Wunderground v.1.15,2013-09-21 19:25:00,
2013-09-21 14:35:00,83.6,48.0,29.85,SSE,148,7.0,8.0,29,0.00,,,0.00,Wunderground v.1.15,2013-09-21 19:35:00,
2013-09-21 14:45:00,84.0,47.4,29.84,SSW,205,8.0,10.0,28,0.00,,,0.00,Wunderground v.1.15,2013-09-21 19:45:00,
2013-09-21 14:55:00,84.7,47.0,29.84,SSW,193,6.0,8.0,27,0.00,,,0.00,Wunderground v.1.15,2013-09-21 19:55:00,
2013-09-21 15:05:00,84.7,48.0,29.83,SW,225,7.0,8.0,28,0.00,,,0.00,Wunderground v.1.15,2013-09-21 20:05:00,
2013-09-21 15:15:00,84.7,47.0,29.83,SW,221,8.0,8.0,27,0.00,,,0.00,Wunderground v.1.15,2013-09-21 20:15:00,
2013-09-21 15:25:00,84.9,48.2,29.82,SSE,160,6.0,8.0,28,0.00,,,0.00,Wunderground v.1.15,2013-09-21 20:25:00,
2013-09-21 15:35:00,85.1,46.4,29.82,SSW,207,8.0,12.0,26,0.00,,,0.00,Wunderground v.1.15,2013-09-21 20:35:00,
2013-09-21 15:45:00,84.9,47.2,29.82,SW,233,7.0,8.0,27,0.00,,,0.00,Wunderground v.1.15,2013-09-21 20:45:00,
2013-09-21 15:55:00,85.2,48.4,29.81,South,184,6.0,7.0,28,0.00,,,0.00,Wunderground v.1.15,2013-09-21 20:55:00,
2013-09-21 16:05:00,85.4,48.6,29.80,South,174,6.0,6.0,28,0.00,,,0.00,Wunderground v.1.15,2013-09-21 21:05:00,
2013-09-21 16:15:00,85.6,48.8,29.80,SSE,153,7.0,8.0,28,0.00,,,0.00,Wunderground v.1.15,2013-09-21 21:15:00,
2013-09-21 16:25:00,85.4,47.6,29.79,NNW,331,6.0,7.0,27,0.00,,,0.00,Wunderground v.1.15,2013-09-21 21:25:00,
2013-09-21 16:35:00,85.3,48.5,29.79,SW,219,8.0,8.0,28,0.00,,,0.00,Wunderground v.1.15,2013-09-21 21:35:00,
2013-09-21 16:45:00,85.4,48.6,29.78,SSE,156,8.0,8.0,28,0.00,,,0.00,Wunderground v.1.15,2013-09-21 21:45:00,
2013-09-21 16:55:00,85.2,49.4,29.78,SSE,165,8.0,9.0,29,0.00,,,0.00,Wunderground v.1.15,2013-09-21 21:55:00,
2013-09-21 17:05:00,85.2,49.4,29.78,SSE,161,7.0,9.0,29,0.00,,,0.00,Wunderground v.1.15,2013-09-21 22:05:00,
2013-09-21 17:15:00,85.2,48.4,29.77,SE,127,9.0,11.0,28,0.00,,,0.00,Wunderground v.1.15,2013-09-21 22:15:00,
2013-09-21 17:20:00,85.0,49.2,29.77,SSW,195,8.0,8.0,29,0.00,,,0.00,Wunderground v.1.15,2013-09-21 22:20:00,
2013-09-21 17:30:00,85.1,48.3,29.77,SSE,167,8.0,8.0,28,0.00,,,0.00,Wunderground v.1.15,2013-09-21 22:30:00,
2013-09-21 17:35:00,85.0,49.2,29.77,SE,132,8.0,8.0,29,0.00,,,0.00,Wunderground v.1.15,2013-09-21 22:35:00,
2013-09-21 17:45:00,84.7,48.0,29.76,SSE,156,9.0,10.0,28,0.00,,,0.00,Wunderground v.1.15,2013-09-21 22:45:00,
2013-09-21 17:55:00,84.5,47.8,29.77,South,174,8.0,9.0,28,0.00,,,0.00,Wunderground v.1.15,2013-09-21 22:55:00,
2013-09-21 18:00:00,84.5,47.8,29.76,SSW,208,8.0,11.0,28,0.00,,,0.00,Wunderground v.1.15,2013-09-21 23:00:00,
2013-09-21 18:10:00,84.4,47.7,29.76,SSW,213,7.0,8.0,28,0.00,,,0.00,Wunderground v.1.15,2013-09-21 23:10:00,
2013-09-21 18:20:00,84.0,47.4,29.76,SSW,194,7.0,12.0,28,0.00,,,0.00,Wunderground v.1.15,2013-09-21 23:20:00,
2013-09-21 18:30:00,83.6,48.0,29.76,South,172,7.0,7.0,29,0.00,,,0.00,Wunderground v.1.15,2013-09-21 23:30:00,
2013-09-21 18:35:00,83.0,47.5,29.76,South,172,7.0,8.0,29,0.00,,,0.00,Wunderground v.1.15,2013-09-21 23:35:00,
2013-09-21 18:45:00,82.0,47.5,29.76,SE,136,7.0,7.0,30,0.00,,,0.00,Wunderground v.1.15,2013-09-21 23:45:00,
2013-09-21 18:50:00,81.6,48.0,29.76,SE,139,7.0,7.0,31,0.00,,,0.00,Wunderground v.1.15,2013-09-21 23:50:00,
2013-09-21 19:00:00,80.6,47.2,29.76,SSE,159,5.0,5.0,31,0.00,,,0.00,Wunderground v.1.15,2013-09-22 00:00:00,
2013-09-21 19:10:00,79.7,47.2,29.76,South,191,5.0,5.0,32,0.00,,,0.00,Wunderground v.1.15,2013-09-22 00:10:00,
2013-09-21 19:15:00,79.2,47.6,29.76,South,184,5.0,6.0,33,0.00,,,0.00,Wunderground v.1.15,2013-09-22 00:15:00,
2013-09-21 19:25:00,78.1,47.4,29.76,SSE,156,4.0,5.0,34,0.00,,,0.00,Wunderground v.1.15,2013-09-22 00:25:00,
2013-09-21 19:30:00,77.4,47.6,29.76,SE,142,4.0,4.0,35,0.00,,,0.00,Wunderground v.1.15,2013-09-22 00:30:00,
2013-09-21 19:40:00,76.2,47.3,29.75,SSE,149,4.0,4.0,36,0.00,,,0.00,Wunderground v.1.15,2013-09-22 00:40:00,
2013-09-21 19:45:00,75.5,48.1,29.75,SSW,205,3.0,4.0,38,0.00,,,0.00,Wunderground v.1.15,2013-09-22 00:45:00,
2013-09-21 19:55:00,74.4,47.8,29.75,South,184,3.0,3.0,39,0.00,,,0.00,Wunderground v.1.15,2013-09-22 00:55:00,
2013-09-21 20:00:00,73.9,48.1,29.75,SSE,155,3.0,3.0,40,0.00,,,0.00,Wunderground v.1.15,2013-09-22 01:00:00,
2013-09-21 20:10:00,73.3,48.2,29.76,SE,132,4.0,4.0,41,0.00,,,0.00,Wunderground v.1.15,2013-09-22 01:10:00,
2013-09-21 20:20:00,72.8,48.4,29.76,SSE,159,4.0,4.0,42,0.00,,,0.00,Wunderground v.1.15,2013-09-22 01:20:00,
2013-09-21 20:30:00,72.0,48.9,29.76,SSE,150,4.0,4.0,44,0.00,,,0.00,Wunderground v.1.15,2013-09-22 01:30:00,
2013-09-21 20:40:00,71.1,48.7,29.76,SSE,149,3.0,3.0,45,0.00,,,0.00,Wunderground v.1.15,2013-09-22 01:40:00,
2013-09-21 20:45:00,70.6,48.8,29.77,SSE,162,3.0,3.0,46,0.00,,,0.00,Wunderground v.1.15,2013-09-22 01:45:00,
2013-09-21 20:55:00,70.0,49.4,29.77,SSE,155,3.0,4.0,48,0.00,,,0.00,Wunderground v.1.15,2013-09-22 01:55:00,
2013-09-21 21:05:00,69.5,49.5,29.77,SE,133,3.0,4.0,49,0.00,,,0.00,Wunderground v.1.15,2013-09-22 02:05:00,
2013-09-21 21:10:00,69.3,49.3,29.77,SSE,154,3.0,4.0,49,0.00,,,0.00,Wunderground v.1.15,2013-09-22 02:10:00,
2013-09-21 21:20:00,69.1,49.1,29.77,SSE,148,5.0,5.0,49,0.00,,,0.00,Wunderground v.1.15,2013-09-22 02:20:00,
2013-09-21 21:30:00,68.5,49.1,29.77,South,184,4.0,4.0,50,0.00,,,0.00,Wunderground v.1.15,2013-09-22 02:30:00,
2013-09-21 21:40:00,67.5,48.7,29.77,South,177,4.0,4.0,51,0.00,,,0.00,Wunderground v.1.15,2013-09-22 02:40:00,
2013-09-21 21:45:00,67.2,49.0,29.77,SSE,155,4.0,4.0,52,0.00,,,0.00,Wunderground v.1.15,2013-09-22 02:45:00,
2013-09-21 21:55:00,66.7,49.0,29.77,SSW,198,4.0,4.0,53,0.00,,,0.00,Wunderground v.1.15,2013-09-22 02:55:00,
2013-09-21 22:05:00,66.6,48.9,29.77,South,183,4.0,5.0,53,0.00,,,0.00,Wunderground v.1.15,2013-09-22 03:05:00,
2013-09-21 22:15:00,67.0,48.8,29.78,SE,134,5.0,6.0,52,0.00,,,0.00,Wunderground v.1.15,2013-09-22 03:15:00,
2013-09-21 22:25:00,67.0,48.8,29.78,SSE,167,4.0,6.0,52,0.00,,,0.00,Wunderground v.1.15,2013-09-22 03:25:00,
2013-09-21 22:35:00,66.5,49.3,29.78,SSE,150,4.0,4.0,54,0.00,,,0.00,Wunderground v.1.15,2013-09-22 03:35:00,
2013-09-21 22:45:00,66.1,49.5,29.78,South,174,5.0,6.0,55,0.00,,,0.00,Wunderground v.1.15,2013-09-22 03:45:00,
2013-09-21 22:55:00,65.1,49.0,29.78,SE,145,4.0,5.0,56,0.00,,,0.00,Wunderground v.1.15,2013-09-22 03:55:00,
2013-09-21 23:00:00,64.5,49.4,29.78,SE,131,4.0,4.0,58,0.00,,,0.00,Wunderground v.1.15,2013-09-22 04:00:00,
2013-09-21 23:05:00,64.1,49.5,29.78,South,179,4.0,4.0,59,0.00,,,0.00,Wunderground v.1.15,2013-09-22 04:05:00,
2013-09-21 23:10:00,63.7,49.5,29.78,South,190,4.0,4.0,60,0.00,,,0.00,Wunderground v.1.15,2013-09-22 04:10:00,
2013-09-21 23:15:00,63.3,49.6,29.78,SSW,198,4.0,4.0,61,0.00,,,0.00,Wunderground v.1.15,2013-09-22 04:15:00,
2013-09-21 23:25:00,62.6,49.4,29.78,SSE,155,4.0,4.0,62,0.00,,,0.00,Wunderground v.1.15,2013-09-22 04:25:00,
2013-09-21 23:35:00,62.2,49.9,29.78,South,177,4.0,4.0,64,0.00,,,0.00,Wunderground v.1.15,2013-09-22 04:35:00,
2013-09-21 23:45:00,61.9,49.6,29.78,South,187,4.0,5.0,64,0.00,,,0.00,Wunderground v.1.15,2013-09-22 04:45:00,
2013-09-21 23:55:00,62.4,50.1,29.78,SE,142,5.0,6.0,64,0.00,,,0.00,Wunderground v.1.15,2013-09-22 04:55:00,